createdAt,value
2022-08-04T00:00:04.760Z,23.30
2022-08-04T00:03:01.679Z,23.40
2022-08-04T00:05:56.923Z,23.43
2022-08-04T00:08:44.138Z,23.21
2022-08-04T00:11:15.497Z,23.08
2022-08-04T00:14:02.391Z,23.16
2022-08-04T00:16:32.948Z,23.07
2022-08-04T00:19:25.158Z,23.14
2022-08-04T00:21:59.040Z,23.24
2022-08-04T00:24:25.594Z,23.27
2022-08-04T00:26:55.087Z,23.27
2022-08-04T00:29:21.709Z,23.38
2022-08-04T00:31:56.001Z,23.28
2022-08-04T00:34:26.115Z,23.11
2022-08-04T00:36:53.280Z,23.12
2022-08-04T00:39:20.401Z,23.25
2022-08-04T01:47:08.151Z,23.39
2022-08-04T01:49:40.427Z,23.25
2022-08-04T01:52:09.759Z,23.19
2022-08-04T01:54:40.513Z,23.23
2022-08-04T01:57:38.347Z,23.20
2022-08-04T01:59:57.306Z,23.11
2022-08-04T02:02:25.956Z,23.07
2022-08-04T02:04:52.257Z,22.94
2022-08-04T02:07:30.211Z,23.10
2022-08-04T02:10:21.743Z,22.94
2022-08-04T02:13:18.075Z,22.86
2022-08-04T02:16:22.321Z,22.88
2022-08-04T02:19:14.613Z,22.96
2022-08-04T02:21:44.299Z,22.95
2022-08-04T02:24:14.297Z,23.00
2022-08-04T02:26:42.255Z,22.98
2022-08-04T02:29:25.266Z,23.11
2022-08-04T02:31:57.211Z,22.93
2022-08-04T02:34:31.553Z,22.95
2022-08-04T02:36:59.068Z,22.94
2022-08-04T02:39:29.334Z,22.95
2022-08-04T02:41:56.180Z,22.96
2022-08-04T02:44:22.848Z,22.95
2022-08-04T02:46:53.801Z,22.93
2022-08-04T02:49:22.384Z,22.99
2022-08-04T02:51:56.953Z,22.97
2022-08-04T02:54:32.708Z,22.93
2022-08-04T02:57:01.138Z,22.75
2022-08-04T02:59:29.553Z,22.72
2022-08-04T03:01:57.769Z,22.81
2022-08-04T03:04:39.215Z,22.74
2022-08-04T03:07:29.200Z,22.73
2022-08-04T03:10:07.020Z,22.75
2022-08-04T03:13:04.805Z,22.73
2022-08-04T03:15:48.653Z,22.72
2022-08-04T03:18:41.720Z,22.71
2022-08-04T03:21:42.071Z,22.70
2022-08-04T03:24:49.137Z,22.87
2022-08-04T03:28:09.108Z,22.78
2022-08-04T03:31:06.578Z,22.76
2022-08-04T03:33:56.548Z,22.77
2022-08-04T03:36:56.411Z,22.78
2022-08-04T03:39:58.095Z,22.79
2022-08-04T03:43:06.002Z,22.92
2022-08-04T03:45:57.950Z,23.03
2022-08-04T03:48:35.808Z,23.10
2022-08-04T03:51:51.516Z,23.16
2022-08-04T03:54:42.084Z,23.18
2022-08-04T03:57:10.780Z,23.29
2022-08-04T03:59:58.185Z,23.33
2022-08-04T04:03:28.528Z,23.44
2022-08-04T04:06:21.560Z,23.52
2022-08-04T04:09:25.024Z,23.58
2022-08-04T04:12:14.837Z,23.58
2022-08-04T04:14:54.317Z,23.55
2022-08-04T04:17:55.981Z,23.63
2022-08-04T04:20:45.920Z,23.74
2022-08-04T04:23:23.126Z,23.76
2022-08-04T04:26:15.058Z,23.78
2022-08-04T04:28:49.807Z,23.78
2022-08-04T04:31:38.644Z,23.90
2022-08-04T04:34:26.866Z,23.84
2022-08-04T04:36:58.643Z,23.86
2022-08-04T04:39:36.628Z,24.00
2022-08-04T04:42:39.745Z,24.02
2022-08-04T04:45:23.922Z,24.02
2022-08-04T04:48:08.851Z,24.04
2022-08-04T04:50:41.966Z,24.03
2022-08-04T04:53:17.001Z,24.09
2022-08-04T04:55:50.440Z,24.12
2022-08-04T04:58:18.275Z,24.19
2022-08-04T05:01:03.645Z,24.23
2022-08-04T05:03:29.313Z,24.31
2022-08-04T05:06:31.237Z,24.21
2022-08-04T05:09:27.136Z,24.17
2022-08-04T05:11:57.957Z,24.21
2022-08-04T05:14:35.132Z,24.33
2022-08-04T05:17:15.966Z,24.37
2022-08-04T05:20:03.027Z,24.38
2022-08-04T05:22:47.676Z,24.39
2022-08-04T05:25:38.779Z,24.37
2022-08-04T05:28:09.471Z,24.50
2022-08-04T05:30:47.586Z,24.55
2022-08-04T05:33:18.381Z,24.57
2022-08-04T05:36:17.709Z,24.52
2022-08-04T05:38:37.645Z,24.68
2022-08-04T05:41:04.746Z,24.66
2022-08-04T05:43:31.255Z,24.64
2022-08-04T05:45:58.927Z,24.59
2022-08-04T05:48:26.272Z,24.70
2022-08-04T05:50:52.465Z,24.73
2022-08-04T05:53:19.641Z,24.70
2022-08-04T05:55:56.768Z,24.81
2022-08-04T05:58:28.796Z,24.90
2022-08-04T06:00:55.981Z,24.92
2022-08-04T06:03:23.226Z,25.07
2022-08-04T06:05:49.580Z,25.14
2022-08-04T06:08:15.599Z,25.03
2022-08-04T06:10:43.834Z,25.05
2022-08-04T06:13:49.040Z,25.17
2022-08-04T06:16:01.362Z,25.11
2022-08-04T06:18:33.146Z,25.20
2022-08-04T06:21:19.982Z,25.32
2022-08-04T06:23:53.757Z,25.27
2022-08-04T06:26:28.451Z,25.37
2022-08-04T06:28:56.484Z,25.42
2022-08-04T06:32:26.791Z,25.58
2022-08-04T06:34:41.316Z,25.69
2022-08-04T06:37:08.548Z,25.72
2022-08-04T06:39:36.025Z,25.72
2022-08-04T06:42:21.453Z,25.97
2022-08-04T06:44:51.059Z,26.03
2022-08-04T06:47:21.688Z,26.19
2022-08-04T06:51:32.678Z,26.23
2022-08-04T06:52:36.919Z,26.24
2022-08-04T06:55:03.850Z,26.43
2022-08-04T06:57:31.174Z,26.47
2022-08-04T07:00:03.021Z,26.42
2022-08-04T07:02:32.543Z,26.43
2022-08-04T07:04:58.613Z,26.38
2022-08-04T07:07:37.258Z,26.36
2022-08-04T07:10:11.986Z,26.44
2022-08-04T07:12:45.200Z,26.44
2022-08-04T07:15:14.360Z,26.56
2022-08-04T07:17:40.965Z,26.52
2022-08-04T07:20:08.655Z,26.47
2022-08-04T07:22:35.724Z,26.64
2022-08-04T07:25:01.631Z,26.60
2022-08-04T07:27:48.471Z,26.58
2022-08-04T07:30:14.465Z,26.55
2022-08-04T07:32:42.996Z,26.48
2022-08-04T07:35:34.503Z,26.45
2022-08-04T07:37:57.425Z,26.53
2022-08-04T07:40:24.910Z,26.45
2022-08-04T07:42:51.086Z,26.46
2022-08-04T07:45:20.723Z,26.48
2022-08-04T07:48:04.666Z,26.55
2022-08-04T07:50:33.004Z,26.71
2022-08-04T07:53:52.889Z,26.80
2022-08-04T07:55:48.220Z,26.80
2022-08-04T07:58:14.122Z,26.76
2022-08-04T08:00:40.284Z,26.70
2022-08-04T08:03:07.420Z,26.83
2022-08-04T08:05:33.354Z,26.84
2022-08-04T08:07:59.923Z,26.90
2022-08-04T08:10:25.814Z,27.05
2022-08-04T08:12:52.724Z,27.13
2022-08-04T08:15:19.625Z,27.19
2022-08-04T08:18:00.131Z,27.21
2022-08-04T08:20:31.121Z,27.39
2022-08-04T08:22:59.091Z,27.42
2022-08-04T08:25:25.123Z,27.39
2022-08-04T08:27:56.395Z,27.39
2022-08-04T08:30:24.289Z,27.46
2022-08-04T08:32:50.828Z,27.50
2022-08-04T08:35:17.785Z,27.45
2022-08-04T08:37:52.264Z,27.49
2022-08-04T08:40:40.111Z,27.57
2022-08-04T08:44:04.977Z,27.59
2022-08-04T08:46:48.969Z,27.51
2022-08-04T08:50:00.515Z,27.56
2022-08-04T08:52:56.348Z,27.65
2022-08-04T08:55:37.129Z,27.50
2022-08-04T08:58:16.360Z,27.55
2022-08-04T09:01:10.210Z,27.65
2022-08-04T09:03:50.975Z,27.61
2022-08-04T09:06:47.055Z,27.76
2022-08-04T09:09:19.132Z,27.63
2022-08-04T09:11:55.385Z,27.65
2022-08-04T09:14:32.903Z,27.78
2022-08-04T09:17:20.132Z,27.60
2022-08-04T09:19:55.457Z,27.74
2022-08-04T09:22:47.288Z,27.79
2022-08-04T09:25:24.911Z,27.87
2022-08-04T09:27:57.563Z,27.84
2022-08-04T09:30:45.342Z,28.15
2022-08-04T09:33:46.169Z,28.13
2022-08-04T09:36:42.375Z,27.92
2022-08-04T09:39:24.275Z,27.96
2022-08-04T09:42:17.932Z,28.12
2022-08-04T09:45:17.056Z,28.05
2022-08-04T09:48:02.490Z,28.14
2022-08-04T09:50:38.263Z,28.36
2022-08-04T09:53:41.790Z,28.61
2022-08-04T09:56:25.277Z,28.57
2022-08-04T09:59:14.924Z,28.65
2022-08-04T10:01:41.719Z,28.86
2022-08-04T10:04:11.449Z,28.91
2022-08-04T10:07:04.420Z,29.19
2022-08-04T10:09:42.186Z,29.14
2022-08-04T10:12:33.936Z,29.34
2022-08-04T10:15:14.924Z,29.64
2022-08-04T10:17:53.460Z,30.01
2022-08-04T10:20:46.439Z,30.36
2022-08-04T10:23:17.313Z,30.52
2022-08-04T10:26:06.052Z,30.54
2022-08-04T10:28:48.875Z,30.85
2022-08-04T10:31:37.100Z,31.21
2022-08-04T10:34:13.628Z,31.42
2022-08-04T10:36:48.932Z,31.61
2022-08-04T10:39:42.631Z,31.79
2022-08-04T10:42:26.684Z,31.95
2022-08-04T10:45:22.996Z,31.98
2022-08-04T10:48:01.598Z,31.77
2022-08-04T10:50:28.534Z,31.54
2022-08-04T10:53:05.255Z,31.83
2022-08-04T10:56:07.612Z,31.63
2022-08-04T10:58:47.435Z,32.23
2022-08-04T11:02:00.119Z,31.93
2022-08-04T11:04:36.924Z,31.75
2022-08-04T11:07:03.325Z,31.69
2022-08-04T11:09:33.062Z,31.44
2022-08-04T11:12:23.954Z,31.83
2022-08-04T11:14:57.733Z,31.60
2022-08-04T11:17:34.877Z,31.52
2022-08-04T11:20:35.499Z,32.20
2022-08-04T11:23:16.548Z,32.04
2022-08-04T11:26:01.105Z,31.76
2022-08-04T11:28:55.836Z,31.64
2022-08-04T11:31:32.684Z,31.47
2022-08-04T11:34:07.674Z,31.84
2022-08-04T11:36:50.177Z,31.99
2022-08-04T11:39:29.892Z,31.77
2022-08-04T11:42:08.249Z,31.63
2022-08-04T11:44:47.298Z,31.90
2022-08-04T11:47:32.267Z,32.15
2022-08-04T11:50:04.647Z,32.24
2022-08-04T11:52:33.463Z,32.85
2022-08-04T11:55:03.958Z,33.37
2022-08-04T11:57:36.020Z,33.42
2022-08-04T12:00:07.632Z,33.40
2022-08-04T12:03:00.942Z,32.64
2022-08-04T12:05:36.781Z,32.45
2022-08-04T12:08:06.453Z,32.40
2022-08-04T12:10:50.935Z,32.59
2022-08-04T12:13:25.784Z,32.86
2022-08-04T12:16:09.891Z,33.07
2022-08-04T12:18:46.324Z,32.80
2022-08-04T12:21:22.524Z,32.56
2022-08-04T12:23:51.691Z,32.54
2022-08-04T12:26:37.494Z,32.28
2022-08-04T12:29:10.021Z,32.58
2022-08-04T12:31:44.694Z,32.60
2022-08-04T12:34:19.495Z,32.35
2022-08-04T12:37:10.175Z,32.38
2022-08-04T12:40:21.707Z,32.49
2022-08-04T12:43:00.004Z,32.32
2022-08-04T12:45:26.409Z,31.63
2022-08-04T12:47:56.170Z,31.35
2022-08-04T12:50:23.585Z,31.18
2022-08-04T12:53:03.725Z,30.90
2022-08-04T12:55:34.177Z,30.83
2022-08-04T12:58:03.612Z,30.71
2022-08-04T13:00:39.980Z,30.82
2022-08-04T13:03:14.883Z,30.93
2022-08-04T13:05:42.114Z,30.91
2022-08-04T13:08:10.030Z,30.84
2022-08-04T13:10:41.933Z,30.99
2022-08-04T13:13:16.319Z,30.91
2022-08-04T13:15:47.320Z,30.93
2022-08-04T13:18:27.359Z,30.93
2022-08-04T13:21:08.288Z,31.18
2022-08-04T13:24:09.969Z,31.29
2022-08-04T13:26:42.532Z,31.44
2022-08-04T13:29:21.836Z,31.35
2022-08-04T13:32:09.229Z,31.39
2022-08-04T13:34:39.471Z,31.44
2022-08-04T13:37:07.072Z,31.37
2022-08-04T13:39:34.683Z,31.18
2022-08-04T13:42:04.174Z,30.80
2022-08-04T13:44:33.398Z,30.79
2022-08-04T13:47:05.154Z,31.08
2022-08-04T13:49:48.610Z,31.03
2022-08-04T13:52:17.318Z,31.06
2022-08-04T13:54:47.247Z,31.25
2022-08-04T13:57:31.043Z,31.40
2022-08-04T14:00:00.853Z,31.25
2022-08-04T14:02:58.278Z,31.08
2022-08-04T14:05:30.233Z,30.98
2022-08-04T14:08:29.025Z,30.78
2022-08-04T14:10:57.820Z,30.86
2022-08-04T14:13:41.152Z,30.71
2022-08-04T14:16:19.592Z,30.85
2022-08-04T14:18:46.324Z,30.72
2022-08-04T14:21:15.748Z,30.66
2022-08-04T14:23:53.234Z,30.88
2022-08-04T14:26:31.492Z,30.71
2022-08-04T14:29:27.553Z,30.68
2022-08-04T14:32:12.509Z,30.39
2022-08-04T14:34:45.193Z,30.60
2022-08-04T14:37:18.656Z,30.85
2022-08-04T14:40:19.294Z,31.16
2022-08-04T14:42:55.080Z,31.51
2022-08-04T14:45:55.061Z,31.51
2022-08-04T14:48:21.658Z,31.60
2022-08-04T14:50:49.657Z,31.88
2022-08-04T14:53:17.547Z,31.99
2022-08-04T14:55:52.666Z,31.78
2022-08-04T14:58:34.630Z,31.46
2022-08-04T15:01:10.513Z,31.37
2022-08-04T15:03:49.854Z,31.26
2022-08-04T15:06:22.333Z,31.10
2022-08-04T15:08:50.455Z,31.12
2022-08-04T15:11:23.309Z,31.06
2022-08-04T15:13:54.371Z,30.82
2022-08-04T15:16:23.330Z,30.80
2022-08-04T15:18:50.078Z,30.80
2022-08-04T15:21:17.058Z,30.73
2022-08-04T15:23:43.200Z,30.71
2022-08-04T15:26:13.113Z,30.74
2022-08-04T15:28:41.591Z,30.78
2022-08-04T15:32:01.682Z,30.29
2022-08-04T15:33:56.268Z,30.74
2022-08-04T15:36:57.584Z,30.69
2022-08-04T15:39:45.607Z,30.53
2022-08-04T15:42:23.162Z,30.23
2022-08-04T15:45:04.804Z,30.16
2022-08-04T15:47:31.371Z,29.94
2022-08-04T15:50:14.352Z,29.91
2022-08-04T15:53:00.689Z,29.81
2022-08-04T15:55:39.623Z,29.74
2022-08-04T15:58:07.213Z,29.69
2022-08-04T16:00:48.789Z,29.49
2022-08-04T16:03:58.080Z,29.42
2022-08-04T16:06:21.576Z,29.56
2022-08-04T16:08:47.341Z,29.52
2022-08-04T16:11:31.785Z,29.60
2022-08-04T16:13:57.822Z,29.69
2022-08-04T16:16:27.599Z,29.81
2022-08-04T16:18:54.269Z,29.78
2022-08-04T16:21:24.690Z,29.50
2022-08-04T16:23:55.951Z,29.35
2022-08-04T16:26:45.244Z,29.37
2022-08-04T16:29:35.056Z,29.39
2022-08-04T16:32:03.960Z,29.19
2022-08-04T16:34:53.906Z,28.81
2022-08-04T16:37:22.375Z,28.90
2022-08-04T16:39:50.290Z,28.88
2022-08-04T16:42:29.537Z,28.93
2022-08-04T16:45:11.335Z,28.91
2022-08-04T16:47:48.890Z,28.80
2022-08-04T16:50:16.455Z,28.63
2022-08-04T16:52:44.326Z,28.44
2022-08-04T16:55:11.333Z,28.44
2022-08-04T16:57:38.903Z,28.38
2022-08-04T17:00:06.631Z,28.26
2022-08-04T17:02:32.920Z,28.22
2022-08-04T17:05:06.965Z,28.21
2022-08-04T17:08:02.209Z,28.09
2022-08-04T17:10:41.979Z,28.09
2022-08-04T17:14:03.415Z,28.13
2022-08-04T17:16:20.358Z,27.82
2022-08-04T17:18:50.102Z,27.74
2022-08-04T17:21:28.719Z,27.63
2022-08-04T17:24:14.837Z,27.46
2022-08-04T17:26:53.802Z,27.16
2022-08-04T17:29:43.158Z,27.07
2022-08-04T17:32:19.960Z,26.75
2022-08-04T17:34:50.583Z,26.63
2022-08-04T17:37:38.070Z,26.20
2022-08-04T17:40:18.490Z,26.02
2022-08-04T17:44:04.634Z,25.88
2022-08-04T17:46:28.984Z,25.48
2022-08-04T17:49:09.342Z,25.17
2022-08-04T17:52:02.661Z,24.96
2022-08-04T17:54:36.694Z,24.76
2022-08-04T17:57:22.389Z,24.92
2022-08-04T17:59:56.725Z,24.97
2022-08-04T18:02:34.090Z,25.03
2022-08-04T18:05:07.661Z,25.06
2022-08-04T18:08:40.282Z,25.19
2022-08-04T18:10:56.878Z,25.15
2022-08-04T18:13:25.376Z,25.23
2022-08-04T18:16:00.754Z,25.38
2022-08-04T18:18:29.089Z,25.60
2022-08-04T18:20:55.348Z,25.70
2022-08-04T18:23:31.326Z,25.90
2022-08-04T18:25:59.071Z,25.97
2022-08-04T18:28:27.918Z,26.17
2022-08-04T18:30:56.543Z,26.15
2022-08-04T18:33:40.042Z,26.19
2022-08-04T18:36:37.291Z,25.61
2022-08-04T18:38:55.461Z,25.08
2022-08-04T18:41:24.775Z,24.89
2022-08-04T18:43:55.965Z,24.97
2022-08-04T18:46:27.095Z,24.97
2022-08-04T18:48:53.814Z,24.96
2022-08-04T18:51:23.905Z,24.99
2022-08-04T18:53:54.711Z,24.69
2022-08-04T18:56:29.676Z,24.22
2022-08-04T18:59:02.933Z,24.03
2022-08-04T19:02:13.698Z,23.76
2022-08-04T19:04:33.119Z,24.02
2022-08-04T19:07:23.100Z,24.15
2022-08-04T19:09:52.167Z,24.25
2022-08-04T19:12:26.882Z,24.36
2022-08-04T19:14:57.786Z,24.39
2022-08-04T19:17:54.090Z,24.38
2022-08-04T19:20:16.031Z,24.33
2022-08-04T19:24:29.422Z,24.52
2022-08-04T19:25:58.705Z,24.57
2022-08-04T19:28:25.082Z,24.53
2022-08-04T19:30:54.132Z,24.39
2022-08-04T19:33:25.051Z,24.42
2022-08-04T19:35:51.478Z,24.44
2022-08-04T19:38:18.254Z,24.55
2022-08-04T19:40:52.400Z,24.62
2022-08-04T19:43:20.167Z,24.56
2022-08-04T19:45:46.191Z,24.59
2022-08-04T19:48:18.579Z,24.61
2022-08-04T19:50:48.367Z,24.53
2022-08-04T19:53:19.457Z,24.63
2022-08-04T19:55:49.756Z,24.67
2022-08-04T19:58:17.082Z,24.68
2022-08-04T20:00:44.672Z,24.58
2022-08-04T20:03:20.392Z,24.60
2022-08-04T20:05:53.971Z,24.65
2022-08-04T20:08:23.232Z,24.57
2022-08-04T20:13:38.668Z,24.55
2022-08-04T20:16:26.208Z,24.53
2022-08-04T20:18:55.912Z,24.53
2022-08-04T20:21:53.445Z,24.43
2022-08-04T20:24:39.033Z,24.44
2022-08-04T20:26:57.089Z,24.50
2022-08-04T20:29:39.917Z,24.37
2022-08-04T20:32:08.771Z,24.32
2022-08-04T20:34:35.669Z,24.13
2022-08-04T20:37:02.371Z,24.36
2022-08-04T20:39:28.567Z,24.30
2022-08-04T20:41:55.882Z,24.20
2022-08-04T20:44:24.327Z,24.16
2022-08-04T20:46:50.385Z,24.16
2022-08-04T20:49:16.773Z,24.12
2022-08-04T20:51:43.580Z,24.14
2022-08-04T20:54:16.936Z,24.07
2022-08-04T20:56:53.087Z,24.08
2022-08-04T20:59:20.108Z,23.97
2022-08-04T21:01:48.977Z,23.95
2022-08-04T21:04:30.635Z,23.97
2022-08-04T21:06:58.191Z,23.89
2022-08-04T21:09:37.087Z,23.94
2022-08-04T21:12:06.261Z,23.92
2022-08-04T21:14:32.540Z,23.90
2022-08-04T21:16:59.083Z,23.78
2022-08-04T21:19:26.927Z,23.79
2022-08-04T21:21:54.131Z,23.83
2022-08-04T21:24:21.130Z,23.72
2022-08-04T21:26:56.328Z,23.76
2022-08-04T21:29:23.186Z,23.69
2022-08-04T21:31:50.402Z,23.66
2022-08-04T21:34:17.093Z,23.59
2022-08-04T21:37:03.000Z,23.61
2022-08-04T21:39:32.580Z,23.57
2022-08-04T21:42:27.714Z,23.66
2022-08-04T21:44:44.464Z,23.42
2022-08-04T21:47:23.279Z,23.39
2022-08-04T21:49:56.493Z,23.34
2022-08-04T21:52:23.813Z,23.31
2022-08-04T21:54:49.642Z,23.45
2022-08-04T21:57:21.528Z,23.45
2022-08-04T21:59:50.942Z,23.51
2022-08-04T22:02:16.865Z,23.40
2022-08-04T22:04:43.627Z,23.33
2022-08-04T22:07:09.642Z,23.26
2022-08-04T22:09:38.911Z,23.14
2022-08-04T22:12:11.605Z,23.19
2022-08-04T22:14:38.621Z,23.26
2022-08-04T22:17:04.741Z,23.16
2022-08-04T22:19:39.928Z,23.08
2022-08-04T22:22:25.181Z,23.07
2022-08-04T22:24:52.789Z,22.97
2022-08-04T22:27:37.534Z,22.96
2022-08-04T22:30:13.328Z,22.89
2022-08-04T22:32:43.798Z,23.00
2022-08-04T22:35:33.349Z,22.80
2022-08-04T22:38:05.590Z,23.07
2022-08-04T22:40:35.475Z,23.10
2022-08-04T22:43:02.680Z,23.17
2022-08-04T22:45:44.542Z,23.26
2022-08-04T22:48:10.921Z,23.06
2022-08-04T22:50:36.822Z,23.06
2022-08-04T22:53:03.212Z,23.10
2022-08-04T22:56:07.119Z,23.22
2022-08-04T22:58:16.790Z,23.29
2022-08-04T23:00:43.840Z,23.19
2022-08-04T23:03:37.444Z,23.09
2022-08-04T23:06:10.501Z,23.09
2022-08-04T23:08:38.539Z,23.04
2022-08-04T23:11:09.005Z,22.88
2022-08-04T23:13:35.431Z,22.95
2022-08-04T23:16:06.551Z,23.03
2022-08-04T23:18:41.785Z,23.01
2022-08-04T23:21:08.823Z,23.00
2022-08-04T23:23:35.893Z,23.00
2022-08-04T23:26:14.787Z,22.80
2022-08-04T23:28:41.989Z,22.74
2022-08-04T23:31:10.265Z,22.44
2022-08-04T23:33:50.523Z,22.60
2022-08-04T23:36:18.067Z,22.48
2022-08-04T23:38:44.632Z,22.57
2022-08-04T23:41:14.467Z,22.54
2022-08-04T23:43:54.953Z,22.68
2022-08-04T23:46:21.967Z,22.52
2022-08-04T23:48:48.170Z,22.48
2022-08-04T23:51:15.580Z,22.32
2022-08-04T23:54:02.957Z,22.18
2022-08-04T23:56:33.266Z,22.20
2022-08-04T23:59:03.412Z,22.16
